createdAt,value
2022-08-20T00:00:50.955Z,99633.97
2022-08-20T00:03:36.313Z,99636.08
2022-08-20T00:06:06.966Z,99634.58
2022-08-20T00:08:35.027Z,99636.08
2022-08-20T00:11:04.582Z,99634.58
2022-08-20T00:13:40.404Z,99641.95
2022-08-20T00:16:09.205Z,99647.84
2022-08-20T00:18:39.802Z,99651.77
2022-08-20T00:21:09.828Z,99660.69
2022-08-20T00:23:38.716Z,99661.92
2022-08-20T00:26:07.011Z,99659.08
2022-08-20T00:28:34.668Z,99658.58
2022-08-20T00:31:04.644Z,99650.89
2022-08-20T00:33:33.536Z,99647.91
2022-08-20T00:36:07.077Z,99654.05
2022-08-20T00:38:35.342Z,99662.17
2022-08-20T00:41:03.016Z,99661.64
2022-08-20T00:43:50.106Z,99663.30
2022-08-20T00:46:31.002Z,99660.55
2022-08-20T00:49:00.101Z,99665.33
2022-08-20T00:51:34.198Z,99661.42
2022-08-20T00:54:31.745Z,99662.48
2022-08-20T00:57:59.003Z,99666.61
2022-08-20T01:00:30.712Z,99669.95
2022-08-20T01:02:59.560Z,99675.98
2022-08-20T01:05:29.897Z,99677.21
2022-08-20T01:07:58.384Z,99676.65
2022-08-20T01:10:29.459Z,99678.37
2022-08-20T01:12:59.611Z,99680.08
2022-08-20T01:15:31.041Z,99682.25
2022-08-20T01:18:00.376Z,99687.02
2022-08-20T01:21:03.276Z,99684.36
2022-08-20T01:23:45.197Z,99685.42
2022-08-20T01:26:20.025Z,99697.61
2022-08-20T01:28:53.766Z,99699.44
2022-08-20T01:31:23.952Z,99689.55
2022-08-20T01:33:52.944Z,99679.52
2022-08-20T01:36:31.856Z,99675.37
2022-08-20T01:39:00.015Z,99674.91
2022-08-20T01:41:59.416Z,99677.48
2022-08-20T01:44:27.391Z,99676.54
2022-08-20T01:46:57.476Z,99678.11
2022-08-20T01:49:29.760Z,99676.81
2022-08-20T01:52:01.017Z,99673.45
2022-08-20T01:54:28.567Z,99666.49
2022-08-20T01:57:04.501Z,99661.02
2022-08-20T01:59:32.092Z,99653.69
2022-08-20T02:02:00.765Z,99646.15
2022-08-20T02:04:28.256Z,99640.23
2022-08-20T02:06:58.733Z,99639.59
2022-08-20T02:09:31.750Z,99645.85
2022-08-20T02:11:59.737Z,99646.61
2022-08-20T02:14:27.780Z,99643.88
2022-08-20T02:16:55.719Z,99642.20
2022-08-20T02:19:26.902Z,99647.52
2022-08-20T02:21:59.087Z,99636.66
2022-08-20T02:24:27.034Z,99639.54
2022-08-20T02:26:55.212Z,99640.16
2022-08-20T02:29:24.273Z,99642.81
2022-08-20T02:32:24.873Z,99645.98
2022-08-20T02:34:39.513Z,99655.77
2022-08-20T02:37:07.595Z,99661.70
2022-08-20T02:39:35.372Z,99658.10
2022-08-20T02:42:04.428Z,99640.50
2022-08-20T02:44:32.410Z,99637.34
2022-08-20T02:47:00.843Z,99633.89
2022-08-20T02:49:28.456Z,99624.58
2022-08-20T02:51:55.896Z,99621.98
2022-08-20T02:54:23.256Z,99624.45
2022-08-20T02:56:52.397Z,99620.11
2022-08-20T02:59:19.955Z,99623.58
2022-08-20T03:01:55.839Z,99623.23
2022-08-20T03:04:32.236Z,99624.36
2022-08-20T03:07:00.416Z,99621.47
2022-08-20T03:09:27.973Z,99624.66
2022-08-20T03:11:55.425Z,99637.08
2022-08-20T03:14:22.764Z,99647.29
2022-08-20T03:16:50.437Z,99652.48
2022-08-20T03:19:17.798Z,99653.33
2022-08-20T03:21:45.779Z,99648.36
2022-08-20T03:24:13.115Z,99641.09
2022-08-20T03:26:40.496Z,99638.47
2022-08-20T03:29:08.326Z,99640.49
2022-08-20T03:31:36.151Z,99644.26
2022-08-20T03:34:03.562Z,99646.74
2022-08-20T03:36:31.135Z,99650.64
2022-08-20T03:39:00.410Z,99653.06
2022-08-20T03:41:29.158Z,99655.41
2022-08-20T03:43:56.955Z,99658.80
2022-08-20T03:46:24.628Z,99654.55
2022-08-20T03:48:56.721Z,99651.31
2022-08-20T03:51:43.473Z,99647.40
2022-08-20T03:54:20.197Z,99644.63
2022-08-20T03:56:48.161Z,99641.33
2022-08-20T03:59:15.616Z,99634.66
2022-08-20T04:01:46.143Z,99637.22
2022-08-20T04:04:14.606Z,99635.74
2022-08-20T04:06:43.404Z,99637.94
2022-08-20T04:09:12.338Z,99640.05
2022-08-20T04:11:41.191Z,99636.79
2022-08-20T04:14:09.315Z,99641.07
2022-08-20T04:16:40.682Z,99645.27
2022-08-20T04:19:08.476Z,99652.16
2022-08-20T04:21:37.282Z,99655.62
2022-08-20T04:24:05.953Z,99659.92
2022-08-20T04:26:35.042Z,99663.73
2022-08-20T04:29:02.296Z,99670.73
2022-08-20T04:31:33.720Z,99674.39
2022-08-20T04:34:02.854Z,99681.17
2022-08-20T04:36:30.474Z,99683.38
2022-08-20T04:38:57.867Z,99683.41
2022-08-20T04:41:25.099Z,99679.04
2022-08-20T04:43:54.801Z,99677.52
2022-08-20T04:46:26.119Z,99679.42
2022-08-20T04:48:54.643Z,99680.42
2022-08-20T04:51:23.111Z,99672.11
2022-08-20T04:53:53.723Z,99680.59
2022-08-20T04:56:26.463Z,99690.23
2022-08-20T04:58:56.056Z,99699.26
2022-08-20T05:01:24.223Z,99705.14
2022-08-20T05:03:55.130Z,99703.79
2022-08-20T05:06:26.187Z,99699.38
2022-08-20T05:08:55.094Z,99702.17
2022-08-20T05:11:32.926Z,99702.25
2022-08-20T05:14:03.327Z,99700.33
2022-08-20T05:16:30.661Z,99701.35
2022-08-20T05:18:58.157Z,99706.09
2022-08-20T05:21:25.792Z,99702.08
2022-08-20T05:23:53.949Z,99698.13
2022-08-20T05:26:21.216Z,99691.36
2022-08-20T05:28:57.704Z,99688.28
2022-08-20T05:31:32.137Z,99689.92
2022-08-20T05:34:19.457Z,99686.61
2022-08-20T05:36:49.519Z,99687.36
2022-08-20T05:39:21.206Z,99687.35
2022-08-20T05:41:51.443Z,99687.91
2022-08-20T05:44:20.313Z,99691.01
2022-08-20T05:46:48.721Z,99692.32
2022-08-20T05:49:20.421Z,99690.04
2022-08-20T05:51:49.250Z,99683.55
2022-08-20T05:54:16.691Z,99681.58
2022-08-20T05:56:44.260Z,99682.93
2022-08-20T05:59:12.935Z,99681.80
2022-08-20T06:01:41.161Z,99684.33
2022-08-20T06:04:25.661Z,99688.81
2022-08-20T06:06:59.618Z,99689.88
2022-08-20T06:09:32.004Z,99690.86
2022-08-20T06:12:04.527Z,99691.27
2022-08-20T06:14:33.420Z,99698.56
2022-08-20T06:17:13.238Z,99704.38
2022-08-20T06:19:44.072Z,99708.80
2022-08-20T06:22:18.100Z,99706.95
2022-08-20T06:24:49.262Z,99708.70
2022-08-20T06:27:19.701Z,99713.89
2022-08-20T06:29:47.490Z,99717.80
2022-08-20T06:32:15.237Z,99719.45
2022-08-20T06:34:50.711Z,99711.52
2022-08-20T06:37:31.757Z,99713.39
2022-08-20T06:40:10.551Z,99708.85
2022-08-20T06:42:44.525Z,99713.84
2022-08-20T06:45:18.194Z,99713.21
2022-08-20T06:47:47.376Z,99713.77
2022-08-20T06:50:22.425Z,99710.98
2022-08-20T06:52:52.499Z,99710.90
2022-08-20T06:55:21.102Z,99717.67
2022-08-20T06:57:48.967Z,99715.66
2022-08-20T07:00:21.130Z,99713.78
2022-08-20T07:02:48.778Z,99711.50
2022-08-20T07:05:17.077Z,99712.28
2022-08-20T07:07:49.230Z,99710.27
2022-08-20T07:10:18.137Z,99710.48
2022-08-20T07:12:47.354Z,99707.95
2022-08-20T07:15:15.604Z,99712.40
2022-08-20T07:17:43.478Z,99716.56
2022-08-20T07:20:13.640Z,99716.33
2022-08-20T07:22:42.654Z,99717.88
2022-08-20T07:25:12.997Z,99713.08
2022-08-20T07:27:40.918Z,99703.80
2022-08-20T07:30:30.139Z,99703.77
2022-08-20T07:32:58.459Z,99705.42
2022-08-20T07:35:27.838Z,99709.79
2022-08-20T07:37:55.597Z,99711.65
2022-08-20T07:40:29.981Z,99706.38
2022-08-20T07:42:59.222Z,99701.81
2022-08-20T07:45:27.401Z,99697.24
2022-08-20T07:47:56.404Z,99702.96
2022-08-20T07:50:26.603Z,99712.22
2022-08-20T07:52:54.527Z,99709.11
2022-08-20T07:55:22.565Z,99718.86
2022-08-20T07:57:51.467Z,99730.64
2022-08-20T08:00:22.796Z,99732.83
2022-08-20T08:02:50.813Z,99732.92
2022-08-20T08:05:20.350Z,99736.40
2022-08-20T08:07:48.266Z,99737.27
2022-08-20T08:10:19.470Z,99735.33
2022-08-20T08:12:50.440Z,99731.94
2022-08-20T08:15:23.517Z,99728.29
2022-08-20T08:18:04.357Z,99722.74
2022-08-20T08:50:08.398Z,99713.68
2022-08-20T08:55:43.383Z,99724.86
2022-08-20T08:58:16.731Z,99726.77
2022-08-20T09:00:55.917Z,99728.64
2022-08-20T09:03:30.678Z,99730.60
2022-08-20T09:05:59.887Z,99730.98
2022-08-20T09:08:36.871Z,99731.36
2022-08-20T09:11:06.777Z,99729.31
2022-08-20T09:13:33.926Z,99723.18
2022-08-20T09:16:01.270Z,99722.80
2022-08-20T09:18:28.617Z,99718.50
2022-08-20T09:20:55.885Z,99718.59
2022-08-20T09:23:22.730Z,99723.71
2022-08-20T09:25:50.916Z,99723.46
2022-08-20T09:28:18.057Z,99719.19
2022-08-20T09:30:45.617Z,99721.38
2022-08-20T09:33:14.418Z,99725.05
2022-08-20T09:35:41.637Z,99722.26
2022-08-20T09:38:08.595Z,99722.36
2022-08-20T09:40:35.327Z,99723.58
2022-08-20T09:43:03.417Z,99719.59
2022-08-20T09:45:31.071Z,99720.05
2022-08-20T09:47:59.027Z,99715.03
2022-08-20T09:50:29.136Z,99719.94
2022-08-20T09:52:58.058Z,99719.82
2022-08-20T09:55:31.265Z,99723.42
2022-08-20T09:57:59.517Z,99720.36
2022-08-20T10:00:26.451Z,99720.30
2022-08-20T10:02:53.592Z,99725.42
2022-08-20T10:05:20.557Z,99725.42
2022-08-20T10:07:47.497Z,99725.34
2022-08-20T10:10:15.161Z,99726.50
2022-08-20T10:12:43.028Z,99726.17
2022-08-20T10:15:10.881Z,99724.11
2022-08-20T10:17:40.288Z,99727.64
2022-08-20T10:20:08.881Z,99730.20
2022-08-20T10:22:35.814Z,99729.70
2022-08-20T10:25:02.761Z,99727.79
2022-08-20T10:27:29.727Z,99727.69
2022-08-20T10:29:56.566Z,99723.25
2022-08-20T10:32:23.696Z,99718.52
2022-08-20T10:34:50.537Z,99719.95
2022-08-20T10:37:24.242Z,99723.61
2022-08-20T10:39:54.677Z,99724.59
2022-08-20T10:42:24.197Z,99728.98
2022-08-20T10:44:50.929Z,99726.61
2022-08-20T10:47:20.101Z,99727.10
2022-08-20T10:49:48.312Z,99732.48
2022-08-20T10:52:16.256Z,99734.91
2022-08-20T10:54:46.070Z,99734.29
2022-08-20T10:57:21.733Z,99733.87
2022-08-20T10:59:52.439Z,99736.83
2022-08-20T11:02:22.642Z,99735.42
2022-08-20T11:04:50.157Z,99729.34
2022-08-20T11:07:50.583Z,99731.27
2022-08-20T11:10:18.729Z,99724.82
2022-08-20T11:12:46.416Z,99728.83
2022-08-20T11:15:14.577Z,99722.61
2022-08-20T11:17:42.959Z,99722.54
2022-08-20T11:20:11.281Z,99717.96
2022-08-20T11:22:38.197Z,99717.59
2022-08-20T11:25:06.396Z,99712.81
2022-08-20T11:27:39.165Z,99715.00
2022-08-20T11:30:08.453Z,99712.05
2022-08-20T11:32:35.916Z,99710.55
2022-08-20T11:35:18.770Z,99712.58
2022-08-20T11:37:53.770Z,99711.39
2022-08-20T11:40:21.070Z,99703.17
2022-08-20T11:43:11.115Z,99705.22
2022-08-20T11:45:37.394Z,99710.98
2022-08-20T11:48:04.778Z,99707.08
2022-08-20T11:50:31.537Z,99704.47
2022-08-20T11:52:58.760Z,99699.13
2022-08-20T11:55:29.509Z,99695.99
2022-08-20T11:58:01.223Z,99695.66
2022-08-20T12:00:32.025Z,99693.20
2022-08-20T12:02:59.484Z,99695.17
2022-08-20T12:05:29.825Z,99692.13
2022-08-20T12:08:00.496Z,99684.33
2022-08-20T12:10:31.236Z,99683.24
2022-08-20T12:12:58.096Z,99680.83
2022-08-20T12:15:27.170Z,99679.21
2022-08-20T12:17:55.330Z,99678.54
2022-08-20T12:20:23.216Z,99674.14
2022-08-20T12:22:50.970Z,99674.27
2022-08-20T12:25:18.141Z,99671.70
2022-08-20T12:27:46.145Z,99668.09
2022-08-20T12:30:17.268Z,99667.75
2022-08-20T12:32:44.713Z,99667.23
2022-08-20T12:35:13.849Z,99669.88
2022-08-20T12:37:41.239Z,99667.89
2022-08-20T12:40:14.314Z,99673.66
2022-08-20T12:42:41.386Z,99677.65
2022-08-20T12:45:09.897Z,99675.80
2022-08-20T12:47:44.968Z,99669.16
2022-08-20T12:50:20.946Z,99663.63
2022-08-20T12:52:49.160Z,99663.09
2022-08-20T12:55:19.252Z,99657.29
2022-08-20T12:57:50.593Z,99651.83
2022-08-20T13:00:22.554Z,99650.97
2022-08-20T13:02:55.986Z,99649.14
2022-08-20T13:05:23.506Z,99644.86
2022-08-20T13:07:50.769Z,99636.64
2022-08-20T13:10:21.718Z,99636.54
2022-08-20T13:12:48.651Z,99633.59
2022-08-20T13:15:15.996Z,99636.30
2022-08-20T13:17:42.957Z,99638.34
2022-08-20T13:20:13.780Z,99632.27
2022-08-20T13:22:41.339Z,99627.06
2022-08-20T13:25:09.462Z,99626.61
2022-08-20T13:27:41.176Z,99628.55
2022-08-20T13:30:15.076Z,99624.11
2022-08-20T13:32:42.138Z,99624.36
2022-08-20T13:35:11.647Z,99625.69
2022-08-20T13:37:39.891Z,99627.10
2022-08-20T13:40:10.171Z,99629.16
2022-08-20T13:42:40.760Z,99627.35
2022-08-20T13:45:08.847Z,99628.46
2022-08-20T13:47:41.137Z,99629.73
2022-08-20T13:50:14.966Z,99626.31
2022-08-20T13:52:42.712Z,99623.00
2022-08-20T13:55:12.580Z,99617.27
2022-08-20T13:57:40.058Z,99610.35
2022-08-20T14:00:12.351Z,99611.84
2022-08-20T14:02:41.614Z,99622.71
2022-08-20T14:05:10.485Z,99634.52
2022-08-20T14:07:38.492Z,99647.52
2022-08-20T14:10:08.867Z,99651.46
2022-08-20T14:12:37.098Z,99653.61
2022-08-20T14:15:04.734Z,99650.22
2022-08-20T14:17:34.257Z,99642.80
2022-08-20T14:20:07.976Z,99641.02
2022-08-20T14:22:36.602Z,99645.69
2022-08-20T14:25:06.271Z,99657.29
2022-08-20T14:27:34.040Z,99668.64
2022-08-20T14:30:02.399Z,99680.55
2022-08-20T14:32:29.238Z,99693.16
2022-08-20T14:34:59.299Z,99691.95
2022-08-20T14:37:35.836Z,99684.63
2022-08-20T14:40:04.944Z,99689.44
2022-08-20T14:42:31.440Z,99685.84
2022-08-20T14:44:59.351Z,99692.73
2022-08-20T14:47:40.467Z,99698.15
2022-08-20T14:54:09.619Z,99713.25
2022-08-20T14:56:37.474Z,99724.70
2022-08-20T14:59:04.220Z,99746.66
2022-08-20T15:01:30.812Z,99746.13
2022-08-20T15:03:57.700Z,99742.55
2022-08-20T15:06:24.409Z,99744.71
2022-08-20T15:08:51.495Z,99746.40
2022-08-20T15:11:18.332Z,99740.34
2022-08-20T15:13:45.382Z,99738.42
2022-08-20T15:16:12.232Z,99736.84
2022-08-20T15:18:39.270Z,99736.30
2022-08-20T15:21:10.148Z,99724.68
2022-08-20T15:23:37.054Z,99720.08
2022-08-20T15:26:03.790Z,99723.48
2022-08-20T15:28:30.432Z,99732.66
2022-08-20T15:30:57.080Z,99737.69
2022-08-20T15:33:23.813Z,99744.62
2022-08-20T15:35:50.341Z,99744.38
2022-08-20T15:38:17.082Z,99744.65
2022-08-20T15:40:43.509Z,99744.06
2022-08-20T15:43:09.948Z,99744.54
2022-08-20T15:45:36.780Z,99747.48
2022-08-20T15:48:15.406Z,99757.43
2022-08-20T15:50:48.416Z,99756.93
2022-08-20T15:53:26.311Z,99763.98
2022-08-20T15:56:01.223Z,99766.00
2022-08-20T15:58:44.250Z,99759.20
2022-08-20T16:01:44.836Z,99759.70
2022-08-20T16:04:21.761Z,99751.30
2022-08-20T16:06:51.373Z,99743.73
2022-08-20T16:09:38.801Z,99747.38
2022-08-20T16:12:10.039Z,99748.72
2022-08-20T16:14:46.809Z,99747.55
2022-08-20T16:17:19.301Z,99750.02
2022-08-20T16:19:59.061Z,99748.54
2022-08-20T16:22:30.374Z,99752.98
2022-08-20T16:24:57.235Z,99758.63
2022-08-20T16:27:40.659Z,99763.17
2022-08-20T16:30:18.920Z,99761.15
2022-08-20T16:32:57.899Z,99756.03
2022-08-20T16:35:35.048Z,99758.91
2022-08-20T16:38:10.316Z,99762.28
2022-08-20T16:41:27.363Z,99767.19
2022-08-20T16:44:03.643Z,99774.09
2022-08-20T16:46:38.062Z,99775.99
2022-08-20T16:49:13.235Z,99775.21
2022-08-20T16:51:43.095Z,99785.57
2022-08-20T16:54:11.136Z,99781.54
2022-08-20T16:56:47.823Z,99775.97
2022-08-20T16:59:26.747Z,99780.34
2022-08-20T17:02:05.107Z,99782.31
2022-08-20T17:04:44.097Z,99796.30
2022-08-20T17:07:46.037Z,99794.13
2022-08-20T17:10:20.090Z,99802.20
2022-08-20T17:12:53.009Z,99801.77
2022-08-20T17:15:23.254Z,99803.40
2022-08-20T17:17:49.693Z,99799.39
2022-08-20T17:20:20.421Z,99797.83
2022-08-20T17:22:51.562Z,99798.11
2022-08-20T17:25:31.543Z,99796.39
2022-08-20T17:28:00.230Z,99796.54
2022-08-20T17:30:36.602Z,99800.46
2022-08-20T17:33:06.693Z,99798.73
2022-08-20T17:35:49.121Z,99796.39
2022-08-20T17:38:32.038Z,99795.31
2022-08-20T17:41:01.823Z,99803.23
2022-08-20T17:43:31.685Z,99802.55
2022-08-20T17:46:01.363Z,99802.29
2022-08-20T17:48:33.191Z,99796.95
2022-08-20T17:51:06.002Z,99797.84
2022-08-20T17:53:35.522Z,99794.29
2022-08-20T17:56:13.301Z,99796.55
2022-08-20T17:59:10.395Z,99794.39
2022-08-20T18:01:37.562Z,99797.59
2022-08-20T18:04:04.361Z,99800.63
2022-08-20T18:07:02.107Z,99800.03
2022-08-20T18:09:47.807Z,99807.27
2022-08-20T18:12:35.944Z,99810.35
2022-08-20T18:15:24.472Z,99813.68
2022-08-20T18:18:20.614Z,99813.63
2022-08-20T18:21:05.603Z,99815.32
2022-08-20T18:23:40.789Z,99814.95
2022-08-20T18:26:21.813Z,99822.98
2022-08-20T18:29:13.952Z,99830.26
2022-08-20T18:31:44.262Z,99837.55
2022-08-20T18:34:34.242Z,99840.80
2022-08-20T18:37:04.193Z,99840.21
2022-08-20T18:39:39.540Z,99844.63
2022-08-20T18:42:08.706Z,99850.30
2022-08-20T18:44:44.662Z,99854.13
2022-08-20T18:47:26.162Z,99857.17
2022-08-20T18:50:16.563Z,99856.27
2022-08-20T18:52:47.685Z,99863.01
2022-08-20T18:55:32.973Z,99864.73
2022-08-20T18:58:29.085Z,99864.73
2022-08-20T19:00:56.043Z,99869.95
2022-08-20T19:03:28.393Z,99867.42
2022-08-20T19:06:05.701Z,99863.50
2022-08-20T19:08:59.482Z,99862.29
2022-08-20T19:11:45.049Z,99858.61
2022-08-20T19:15:02.481Z,99863.46
2022-08-20T19:17:56.061Z,99866.90
2022-08-20T19:20:30.571Z,99873.12
2022-08-20T19:23:14.921Z,99874.84
2022-08-20T19:26:01.837Z,99873.90
2022-08-20T19:28:49.282Z,99873.13
2022-08-20T19:31:21.121Z,99872.89
2022-08-20T19:33:51.757Z,99867.38
2022-08-20T19:36:26.658Z,99867.52
2022-08-20T19:38:59.480Z,99863.58
2022-08-20T19:41:32.364Z,99854.67
2022-08-20T19:44:00.743Z,99857.08
2022-08-20T19:46:36.000Z,99850.53
2022-08-20T19:49:20.961Z,99848.72
2022-08-20T19:52:13.903Z,99849.73
2022-08-20T19:54:52.780Z,99849.89
2022-08-20T19:57:22.185Z,99848.54
2022-08-20T20:00:04.656Z,99848.04
2022-08-20T20:02:33.114Z,99852.26
2022-08-20T20:05:00.781Z,99848.36
2022-08-20T20:07:39.979Z,99846.67
2022-08-20T20:10:09.339Z,99848.62
2022-08-20T20:12:36.461Z,99845.02
2022-08-20T20:15:06.582Z,99834.77
2022-08-20T20:17:35.557Z,99829.98
2022-08-20T20:20:20.940Z,99828.09
2022-08-20T20:23:04.313Z,99833.04
2022-08-20T20:25:34.063Z,99830.59
2022-08-20T20:28:28.897Z,99826.77
2022-08-20T20:31:09.442Z,99819.15
2022-08-20T20:33:44.173Z,99816.44
2022-08-20T20:36:16.287Z,99819.08
2022-08-20T20:38:55.183Z,99820.07
2022-08-20T20:41:25.302Z,99821.92
2022-08-20T20:44:05.617Z,99823.31
2022-08-20T20:46:34.634Z,99825.02
2022-08-20T20:49:16.361Z,99816.84
2022-08-20T20:52:04.878Z,99817.40
2022-08-20T20:54:42.877Z,99812.70
2022-08-20T20:57:36.314Z,99803.02
2022-08-20T21:00:13.220Z,99793.77
2022-08-20T21:02:40.881Z,99800.36
2022-08-20T21:05:08.553Z,99807.88
2022-08-20T21:07:45.422Z,99816.42
2022-08-20T21:10:20.387Z,99814.90
2022-08-20T21:12:51.944Z,99814.88
2022-08-20T21:15:20.810Z,99817.41
2022-08-20T21:17:47.776Z,99818.23
2022-08-20T21:20:14.593Z,99815.81
2022-08-20T21:22:41.349Z,99815.21
2022-08-20T21:25:08.697Z,99815.15
2022-08-20T21:27:36.058Z,99814.34
2022-08-20T21:30:05.658Z,99813.74
2022-08-20T21:32:32.596Z,99815.02
2022-08-20T21:34:59.562Z,99813.21
2022-08-20T21:37:26.388Z,99814.71
2022-08-20T21:39:53.388Z,99815.00
2022-08-20T21:42:29.176Z,99813.25
2022-08-20T21:44:58.804Z,99816.17
2022-08-20T21:47:27.280Z,99820.30
2022-08-20T21:49:54.616Z,99823.27
2022-08-20T21:52:21.362Z,99818.11
2022-08-20T21:54:48.400Z,99814.31
2022-08-20T21:57:24.152Z,99815.02
2022-08-20T21:59:52.041Z,99814.20
2022-08-20T22:02:19.273Z,99822.94
2022-08-20T22:04:46.038Z,99827.89
2022-08-20T22:07:13.904Z,99827.71
2022-08-20T22:09:40.742Z,99830.63
2022-08-20T22:12:14.332Z,99831.57
2022-08-20T22:14:41.084Z,99827.65
2022-08-20T22:17:07.814Z,99824.94
2022-08-20T22:19:34.439Z,99824.98
2022-08-20T22:22:01.102Z,99824.98
2022-08-20T22:24:28.741Z,99823.48
2022-08-20T22:26:56.504Z,99822.61
2022-08-20T22:29:24.081Z,99822.11
2022-08-20T22:31:50.718Z,99817.90
2022-08-20T22:34:19.797Z,99820.48
2022-08-20T22:36:46.965Z,99817.59
2022-08-20T22:39:14.135Z,99815.19
2022-08-20T22:41:41.170Z,99814.88
2022-08-20T22:44:08.624Z,99805.63
2022-08-20T22:46:45.032Z,99806.24
2022-08-20T22:49:17.672Z,99798.23
2022-08-20T22:51:44.995Z,99796.87
2022-08-20T22:54:12.865Z,99796.59
2022-08-20T22:56:39.505Z,99806.27
2022-08-20T22:59:08.000Z,99812.92
2022-08-20T23:01:34.724Z,99815.83
2022-08-20T23:04:32.398Z,99817.46
2022-08-20T23:07:02.920Z,99819.20
2022-08-20T23:09:30.330Z,99809.23
2022-08-20T23:11:57.960Z,99818.20
2022-08-20T23:14:26.930Z,99817.60
2022-08-20T23:17:13.698Z,99819.16
2022-08-20T23:19:41.822Z,99821.84
2022-08-20T23:22:09.369Z,99816.41
2022-08-20T23:24:36.540Z,99812.83
2022-08-20T23:27:05.520Z,99812.59
2022-08-20T23:29:33.282Z,99810.12
2022-08-20T23:32:00.542Z,99809.83
2022-08-20T23:34:27.782Z,99811.07
2022-08-20T23:36:55.982Z,99809.85
2022-08-20T23:39:24.143Z,99808.00
2022-08-20T23:41:50.957Z,99811.91
2022-08-20T23:44:26.025Z,99811.48
2022-08-20T23:46:56.244Z,99807.80
2022-08-20T23:49:22.864Z,99806.48
2022-08-20T23:51:49.298Z,99813.81
2022-08-20T23:54:15.943Z,99818.70
2022-08-20T23:56:42.472Z,99821.16
2022-08-20T23:59:09.111Z,99818.73
